sensor_id;sensor_type;location;lat;lon;timestamp;pressure;altitude;pressure_sealevel;temperature
69420;BMP280;56612;52.030;113.524;2022-09-09T00:02:29;93082.84;;;13.71
69420;BMP280;56612;52.030;113.524;2022-09-09T00:05:42;93079.50;;;13.88
69420;BMP280;56612;52.030;113.524;2022-09-09T00:12:58;93085.53;;;14.13
69420;BMP280;56612;52.030;113.524;2022-09-09T00:16:17;93085.50;;;14.31
69420;BMP280;56612;52.030;113.524;2022-09-09T00:19:43;93085.50;;;14.50
69420;BMP280;56612;52.030;113.524;2022-09-09T00:23:12;93094.19;;;14.56
69420;BMP280;56612;52.030;113.524;2022-09-09T00:26:35;93094.91;;;14.57
69420;BMP280;56612;52.030;113.524;2022-09-09T00:29:57;93088.19;;;14.50
69420;BMP280;56612;52.030;113.524;2022-09-09T00:33:10;93078.72;;;14.63
69420;BMP280;56612;52.030;113.524;2022-09-09T00:36:21;93082.72;;;14.82
69420;BMP280;56612;52.030;113.524;2022-09-09T00:39:37;93085.31;;;15.00
69420;BMP280;56612;52.030;113.524;2022-09-09T00:42:43;93085.94;;;15.07
69420;BMP280;56612;52.030;113.524;2022-09-09T00:46:41;93091.22;;;15.31
69420;BMP280;56612;52.030;113.524;2022-09-09T00:49:39;93093.19;;;15.39
69420;BMP280;56612;52.030;113.524;2022-09-09T00:56:21;93090.09;;;15.98
69420;BMP280;56612;52.030;113.524;2022-09-09T01:06:27;93075.34;;;16.64
69420;BMP280;56612;52.030;113.524;2022-09-09T01:09:52;93075.59;;;16.97
69420;BMP280;56612;52.030;113.524;2022-09-09T01:13:01;93069.25;;;17.17
69420;BMP280;56612;52.030;113.524;2022-09-09T01:16:10;93083.84;;;17.36
69420;BMP280;56612;52.030;113.524;2022-09-09T01:19:24;93077.63;;;17.46
69420;BMP280;56612;52.030;113.524;2022-09-09T01:28:55;93073.78;;;19.21
69420;BMP280;56612;52.030;113.524;2022-09-09T01:32:40;93079.97;;;20.05
69420;BMP280;56612;52.030;113.524;2022-09-09T01:35:53;93075.81;;;20.59
69420;BMP280;56612;52.030;113.524;2022-09-09T01:39:04;93082.69;;;20.81
69420;BMP280;56612;52.030;113.524;2022-09-09T01:42:10;93092.75;;;21.32
69420;BMP280;56612;52.030;113.524;2022-09-09T01:45:16;93082.00;;;21.72
69420;BMP280;56612;52.030;113.524;2022-09-09T01:48:22;93085.50;;;22.10
69420;BMP280;56612;52.030;113.524;2022-09-09T01:51:38;93077.81;;;22.56
69420;BMP280;56612;52.030;113.524;2022-09-09T01:54:45;93079.56;;;22.24
69420;BMP280;56612;52.030;113.524;2022-09-09T02:04:56;93062.19;;;22.92
69420;BMP280;56612;52.030;113.524;2022-09-09T02:08:10;93068.44;;;23.07
69420;BMP280;56612;52.030;113.524;2022-09-09T02:11:38;93063.69;;;23.24
69420;BMP280;56612;52.030;113.524;2022-09-09T02:14:57;93067.97;;;24.36
69420;BMP280;56612;52.030;113.524;2022-09-09T02:18:10;93067.31;;;24.81
69420;BMP280;56612;52.030;113.524;2022-09-09T02:21:17;93060.84;;;25.18
69420;BMP280;56612;52.030;113.524;2022-09-09T02:24:22;93064.72;;;25.80
69420;BMP280;56612;52.030;113.524;2022-09-09T02:27:36;93064.41;;;26.66
69420;BMP280;56612;52.030;113.524;2022-09-09T02:30:41;93068.94;;;27.22
69420;BMP280;56612;52.030;113.524;2022-09-09T02:33:57;93063.63;;;27.79
69420;BMP280;56612;52.030;113.524;2022-09-09T02:37:03;93062.78;;;27.93
69420;BMP280;56612;52.030;113.524;2022-09-09T02:40:12;93052.44;;;28.07
69420;BMP280;56612;52.030;113.524;2022-09-09T02:43:23;93047.13;;;28.49
69420;BMP280;56612;52.030;113.524;2022-09-09T02:50:41;93043.31;;;29.73
69420;BMP280;56612;52.030;113.524;2022-09-09T02:53:33;93032.44;;;30.22
69420;BMP280;56612;52.030;113.524;2022-09-09T02:56:46;93024.13;;;30.82
69420;BMP280;56612;52.030;113.524;2022-09-09T02:59:59;93021.16;;;30.95
69420;BMP280;56612;52.030;113.524;2022-09-09T03:03:07;93027.16;;;30.97
69420;BMP280;56612;52.030;113.524;2022-09-09T03:06:14;93025.25;;;31.23
69420;BMP280;56612;52.030;113.524;2022-09-09T03:09:24;93014.75;;;31.82
69420;BMP280;56612;52.030;113.524;2022-09-09T03:12:29;93008.09;;;32.41
69420;BMP280;56612;52.030;113.524;2022-09-09T03:15:32;92997.25;;;32.64
69420;BMP280;56612;52.030;113.524;2022-09-09T03:18:36;93007.25;;;32.34
69420;BMP280;56612;52.030;113.524;2022-09-09T03:21:40;92997.81;;;32.22
69420;BMP280;56612;52.030;113.524;2022-09-09T03:24:43;93000.72;;;32.20
69420;BMP280;56612;52.030;113.524;2022-09-09T03:27:47;92998.06;;;32.80
69420;BMP280;56612;52.030;113.524;2022-09-09T03:30:58;93001.28;;;32.57
69420;BMP280;56612;52.030;113.524;2022-09-09T03:34:07;92990.88;;;30.84
69420;BMP280;56612;52.030;113.524;2022-09-09T03:37:10;92988.00;;;30.37
69420;BMP280;56612;52.030;113.524;2022-09-09T03:40:15;92989.81;;;30.11
69420;BMP280;56612;52.030;113.524;2022-09-09T03:43:23;92978.56;;;30.34
69420;BMP280;56612;52.030;113.524;2022-09-09T03:46:28;92971.13;;;32.18
69420;BMP280;56612;52.030;113.524;2022-09-09T03:49:31;92965.25;;;33.43
69420;BMP280;56612;52.030;113.524;2022-09-09T03:52:39;92977.22;;;34.29
69420;BMP280;56612;52.030;113.524;2022-09-09T03:55:53;92971.69;;;34.77
69420;BMP280;56612;52.030;113.524;2022-09-09T03:59:00;92969.19;;;34.81
69420;BMP280;56612;52.030;113.524;2022-09-09T04:02:03;92965.22;;;33.84
69420;BMP280;56612;52.030;113.524;2022-09-09T04:05:08;92974.41;;;32.30
69420;BMP280;56612;52.030;113.524;2022-09-09T04:08:14;92959.91;;;31.39
69420;BMP280;56612;52.030;113.524;2022-09-09T04:11:18;92949.13;;;31.26
69420;BMP280;56612;52.030;113.524;2022-09-09T04:14:25;92948.03;;;30.66
69420;BMP280;56612;52.030;113.524;2022-09-09T04:17:32;92942.09;;;30.04
69420;BMP280;56612;52.030;113.524;2022-09-09T04:20:36;92945.69;;;30.11
69420;BMP280;56612;52.030;113.524;2022-09-09T04:23:40;92938.81;;;30.89
69420;BMP280;56612;52.030;113.524;2022-09-09T04:26:43;92926.09;;;31.11
69420;BMP280;56612;52.030;113.524;2022-09-09T04:29:48;92928.00;;;32.13
69420;BMP280;56612;52.030;113.524;2022-09-09T04:32:52;92911.88;;;33.51
69420;BMP280;56612;52.030;113.524;2022-09-09T04:35:55;92920.06;;;32.60
69420;BMP280;56612;52.030;113.524;2022-09-09T04:39:00;92920.56;;;32.46
69420;BMP280;56612;52.030;113.524;2022-09-09T04:42:05;92918.75;;;31.71
69420;BMP280;56612;52.030;113.524;2022-09-09T04:45:09;92915.34;;;31.35
69420;BMP280;56612;52.030;113.524;2022-09-09T04:48:15;92916.38;;;31.40
69420;BMP280;56612;52.030;113.524;2022-09-09T04:51:18;92918.47;;;31.11
69420;BMP280;56612;52.030;113.524;2022-09-09T04:54:23;92912.47;;;31.45
69420;BMP280;56612;52.030;113.524;2022-09-09T04:57:27;92912.84;;;31.22
69420;BMP280;56612;52.030;113.524;2022-09-09T05:00:33;92905.47;;;31.10
69420;BMP280;56612;52.030;113.524;2022-09-09T05:03:41;92898.63;;;30.81
69420;BMP280;56612;52.030;113.524;2022-09-09T05:06:47;92900.47;;;30.85
69420;BMP280;56612;52.030;113.524;2022-09-09T05:09:51;92902.56;;;31.12
69420;BMP280;56612;52.030;113.524;2022-09-09T05:12:55;92899.06;;;31.58
69420;BMP280;56612;52.030;113.524;2022-09-09T05:16:02;92900.63;;;31.47
69420;BMP280;56612;52.030;113.524;2022-09-09T05:19:07;92896.78;;;31.24
69420;BMP280;56612;52.030;113.524;2022-09-09T05:22:19;92897.09;;;31.20
69420;BMP280;56612;52.030;113.524;2022-09-09T05:25:25;92887.72;;;31.26
69420;BMP280;56612;52.030;113.524;2022-09-09T05:28:34;92877.63;;;31.59
69420;BMP280;56612;52.030;113.524;2022-09-09T05:31:39;92880.56;;;31.65
69420;BMP280;56612;52.030;113.524;2022-09-09T05:34:47;92871.50;;;31.84
69420;BMP280;56612;52.030;113.524;2022-09-09T05:37:51;92873.50;;;32.28
69420;BMP280;56612;52.030;113.524;2022-09-09T05:40:56;92874.53;;;33.17
69420;BMP280;56612;52.030;113.524;2022-09-09T05:43:59;92866.13;;;33.43
69420;BMP280;56612;52.030;113.524;2022-09-09T05:47:08;92873.88;;;34.38
69420;BMP280;56612;52.030;113.524;2022-09-09T05:50:13;92866.63;;;35.62
69420;BMP280;56612;52.030;113.524;2022-09-09T05:53:18;92862.63;;;34.85
69420;BMP280;56612;52.030;113.524;2022-09-09T05:56:24;92868.00;;;34.33
69420;BMP280;56612;52.030;113.524;2022-09-09T05:59:30;92859.28;;;34.22
69420;BMP280;56612;52.030;113.524;2022-09-09T06:02:36;92849.31;;;34.79
69420;BMP280;56612;52.030;113.524;2022-09-09T06:05:44;92846.56;;;37.37
69420;BMP280;56612;52.030;113.524;2022-09-09T06:08:51;92840.47;;;37.15
69420;BMP280;56612;52.030;113.524;2022-09-09T06:11:55;92832.47;;;36.35
69420;BMP280;56612;52.030;113.524;2022-09-09T06:15:02;92828.66;;;36.17
69420;BMP280;56612;52.030;113.524;2022-09-09T06:18:05;92819.25;;;37.25
69420;BMP280;56612;52.030;113.524;2022-09-09T06:21:15;92824.97;;;36.40
69420;BMP280;56612;52.030;113.524;2022-09-09T06:24:20;92819.50;;;35.53
69420;BMP280;56612;52.030;113.524;2022-09-09T06:27:27;92825.03;;;35.16
69420;BMP280;56612;52.030;113.524;2022-09-09T06:30:30;92822.34;;;35.23
69420;BMP280;56612;52.030;113.524;2022-09-09T06:33:36;92814.56;;;35.17
69420;BMP280;56612;52.030;113.524;2022-09-09T06:36:43;92817.94;;;34.65
69420;BMP280;56612;52.030;113.524;2022-09-09T06:39:47;92801.63;;;34.46
69420;BMP280;56612;52.030;113.524;2022-09-09T06:42:51;92809.69;;;34.72
69420;BMP280;56612;52.030;113.524;2022-09-09T06:46:14;92813.44;;;35.87
69420;BMP280;56612;52.030;113.524;2022-09-09T06:49:19;92802.88;;;35.60
69420;BMP280;56612;52.030;113.524;2022-09-09T06:52:23;92802.22;;;35.81
69420;BMP280;56612;52.030;113.524;2022-09-09T06:55:29;92798.03;;;36.80
69420;BMP280;56612;52.030;113.524;2022-09-09T06:58:33;92801.41;;;38.02
69420;BMP280;56612;52.030;113.524;2022-09-09T07:01:40;92801.41;;;39.56
69420;BMP280;56612;52.030;113.524;2022-09-09T07:04:47;92792.72;;;39.95
69420;BMP280;56612;52.030;113.524;2022-09-09T07:07:53;92788.75;;;38.10
69420;BMP280;56612;52.030;113.524;2022-09-09T07:11:05;92786.53;;;36.90
69420;BMP280;56612;52.030;113.524;2022-09-09T07:14:16;92778.44;;;35.54
69420;BMP280;56612;52.030;113.524;2022-09-09T07:17:22;92784.34;;;35.28
69420;BMP280;56612;52.030;113.524;2022-09-09T07:20:26;92782.06;;;35.74
69420;BMP280;56612;52.030;113.524;2022-09-09T07:23:30;92778.47;;;36.04
69420;BMP280;56612;52.030;113.524;2022-09-09T07:26:39;92779.38;;;36.37
69420;BMP280;56612;52.030;113.524;2022-09-09T07:29:43;92770.16;;;36.73
69420;BMP280;56612;52.030;113.524;2022-09-09T07:32:51;92774.69;;;36.77
69420;BMP280;56612;52.030;113.524;2022-09-09T07:36:06;92777.31;;;37.53
69420;BMP280;56612;52.030;113.524;2022-09-09T07:39:12;92767.63;;;37.26
69420;BMP280;56612;52.030;113.524;2022-09-09T07:42:23;92769.28;;;38.80
69420;BMP280;56612;52.030;113.524;2022-09-09T07:45:27;92767.78;;;39.32
69420;BMP280;56612;52.030;113.524;2022-09-09T07:48:32;92755.25;;;37.77
69420;BMP280;56612;52.030;113.524;2022-09-09T07:51:39;92755.88;;;37.84
69420;BMP280;56612;52.030;113.524;2022-09-09T07:54:44;92750.53;;;37.95
69420;BMP280;56612;52.030;113.524;2022-09-09T07:57:49;92749.44;;;36.92
69420;BMP280;56612;52.030;113.524;2022-09-09T08:00:52;92748.59;;;36.52
69420;BMP280;56612;52.030;113.524;2022-09-09T08:04:08;92744.28;;;37.55
69420;BMP280;56612;52.030;113.524;2022-09-09T08:07:12;92740.22;;;38.13
69420;BMP280;56612;52.030;113.524;2022-09-09T08:10:23;92729.66;;;38.34
69420;BMP280;56612;52.030;113.524;2022-09-09T08:13:29;92727.31;;;37.44
69420;BMP280;56612;52.030;113.524;2022-09-09T08:16:36;92727.38;;;36.90
69420;BMP280;56612;52.030;113.524;2022-09-09T08:19:40;92721.66;;;36.57
69420;BMP280;56612;52.030;113.524;2022-09-09T08:22:48;92723.19;;;36.63
69420;BMP280;56612;52.030;113.524;2022-09-09T08:25:53;92724.34;;;36.79
69420;BMP280;56612;52.030;113.524;2022-09-09T08:28:59;92735.03;;;36.76
69420;BMP280;56612;52.030;113.524;2022-09-09T08:32:03;92715.91;;;37.27
69420;BMP280;56612;52.030;113.524;2022-09-09T08:35:08;92722.63;;;37.63
69420;BMP280;56612;52.030;113.524;2022-09-09T08:38:13;92722.81;;;38.06
69420;BMP280;56612;52.030;113.524;2022-09-09T08:41:40;92729.84;;;38.51
69420;BMP280;56612;52.030;113.524;2022-09-09T08:51:34;92717.22;;;38.33
69420;BMP280;56612;52.030;113.524;2022-09-09T08:54:38;92719.50;;;38.63
69420;BMP280;56612;52.030;113.524;2022-09-09T08:57:57;92733.25;;;39.46
69420;BMP280;56612;52.030;113.524;2022-09-09T09:08:03;92719.91;;;39.47
69420;BMP280;56612;52.030;113.524;2022-09-09T09:11:11;92714.19;;;39.36
69420;BMP280;56612;52.030;113.524;2022-09-09T09:14:21;92713.91;;;39.44
69420;BMP280;56612;52.030;113.524;2022-09-09T09:17:31;92710.09;;;38.97
69420;BMP280;56612;52.030;113.524;2022-09-09T09:23:58;92715.16;;;40.42
69420;BMP280;56612;52.030;113.524;2022-09-09T09:27:18;92713.16;;;41.18
69420;BMP280;56612;52.030;113.524;2022-09-09T09:30:31;92712.69;;;41.33
69420;BMP280;56612;52.030;113.524;2022-09-09T09:37:01;92717.63;;;41.90
69420;BMP280;56612;52.030;113.524;2022-09-09T09:40:14;92709.94;;;41.44
69420;BMP280;56612;52.030;113.524;2022-09-09T09:43:21;92706.81;;;41.06
69420;BMP280;56612;52.030;113.524;2022-09-09T09:46:27;92704.06;;;40.53
69420;BMP280;56612;52.030;113.524;2022-09-09T09:49:52;92704.13;;;40.82
69420;BMP280;56612;52.030;113.524;2022-09-09T09:52:58;92701.34;;;40.46
69420;BMP280;56612;52.030;113.524;2022-09-09T09:56:08;92711.44;;;40.08
69420;BMP280;56612;52.030;113.524;2022-09-09T09:59:35;92705.03;;;39.48
69420;BMP280;56612;52.030;113.524;2022-09-09T10:02:48;92702.28;;;38.67
69420;BMP280;56612;52.030;113.524;2022-09-09T10:05:59;92704.47;;;38.53
69420;BMP280;56612;52.030;113.524;2022-09-09T10:09:18;92705.44;;;38.12
69420;BMP280;56612;52.030;113.524;2022-09-09T10:12:54;92709.50;;;38.07
69420;BMP280;56612;52.030;113.524;2022-09-09T10:20:32;92696.44;;;35.68
69420;BMP280;56612;52.030;113.524;2022-09-09T10:30:19;92701.81;;;32.56
69420;BMP280;56612;52.030;113.524;2022-09-09T10:36:39;92693.75;;;31.34
69420;BMP280;56612;52.030;113.524;2022-09-09T10:39:47;92691.34;;;30.76
69420;BMP280;56612;52.030;113.524;2022-09-09T10:42:55;92692.06;;;30.30
69420;BMP280;56612;52.030;113.524;2022-09-09T10:56:27;92698.25;;;28.85
69420;BMP280;56612;52.030;113.524;2022-09-09T10:59:36;92694.66;;;28.68
69420;BMP280;56612;52.030;113.524;2022-09-09T11:02:42;92696.41;;;28.41
69420;BMP280;56612;52.030;113.524;2022-09-09T11:06:41;92690.81;;;28.12
69420;BMP280;56612;52.030;113.524;2022-09-09T11:09:32;92696.03;;;27.84
69420;BMP280;56612;52.030;113.524;2022-09-09T11:12:41;92694.16;;;27.59
69420;BMP280;56612;52.030;113.524;2022-09-09T11:15:50;92697.13;;;27.44
69420;BMP280;56612;52.030;113.524;2022-09-09T11:23:18;92707.16;;;27.27
69420;BMP280;56612;52.030;113.524;2022-09-09T11:26:03;92706.19;;;27.20
69420;BMP280;56612;52.030;113.524;2022-09-09T11:42:43;92719.28;;;26.13
69420;BMP280;56612;52.030;113.524;2022-09-09T11:45:55;92726.22;;;26.00
69420;BMP280;56612;52.030;113.524;2022-09-09T11:49:05;92721.72;;;25.94
69420;BMP280;56612;52.030;113.524;2022-09-09T11:52:39;92731.81;;;25.85
69420;BMP280;56612;52.030;113.524;2022-09-09T11:55:46;92728.94;;;25.62
69420;BMP280;56612;52.030;113.524;2022-09-09T11:59:17;92734.56;;;25.47
69420;BMP280;56612;52.030;113.524;2022-09-09T12:02:25;92727.81;;;25.31
69420;BMP280;56612;52.030;113.524;2022-09-09T12:05:50;92744.22;;;25.19
69420;BMP280;56612;52.030;113.524;2022-09-09T12:08:58;92743.56;;;25.06
69420;BMP280;56612;52.030;113.524;2022-09-09T12:12:07;92748.63;;;24.86
69420;BMP280;56612;52.030;113.524;2022-09-09T12:18:24;92750.50;;;24.63
69420;BMP280;56612;52.030;113.524;2022-09-09T12:28:39;92757.81;;;24.24
69420;BMP280;56612;52.030;113.524;2022-09-09T12:35:26;92761.44;;;23.91
69420;BMP280;56612;52.030;113.524;2022-09-09T12:38:37;92761.41;;;23.77
69420;BMP280;56612;52.030;113.524;2022-09-09T12:41:53;92760.56;;;23.66
69420;BMP280;56612;52.030;113.524;2022-09-09T12:45:14;92755.44;;;23.43
69420;BMP280;56612;52.030;113.524;2022-09-09T12:48:20;92767.69;;;23.27
69420;BMP280;56612;52.030;113.524;2022-09-09T12:51:28;92762.59;;;23.19
69420;BMP280;56612;52.030;113.524;2022-09-09T12:54:34;92769.66;;;23.14
69420;BMP280;56612;52.030;113.524;2022-09-09T12:57:39;92768.19;;;23.00
69420;BMP280;56612;52.030;113.524;2022-09-09T13:00:51;92767.88;;;22.92
69420;BMP280;56612;52.030;113.524;2022-09-09T13:03:55;92777.59;;;22.70
69420;BMP280;56612;52.030;113.524;2022-09-09T13:07:08;92773.81;;;22.63
69420;BMP280;56612;52.030;113.524;2022-09-09T13:10:24;92766.56;;;22.57
69420;BMP280;56612;52.030;113.524;2022-09-09T13:13:40;92769.63;;;22.66
69420;BMP280;56612;52.030;113.524;2022-09-09T13:16:57;92765.13;;;22.75
69420;BMP280;56612;52.030;113.524;2022-09-09T13:20:01;92766.88;;;22.66
69420;BMP280;56612;52.030;113.524;2022-09-09T13:23:11;92762.59;;;22.71
69420;BMP280;56612;52.030;113.524;2022-09-09T13:26:24;92770.41;;;22.62
69420;BMP280;56612;52.030;113.524;2022-09-09T13:29:31;92766.66;;;22.38
69420;BMP280;56612;52.030;113.524;2022-09-09T13:32:35;92761.16;;;22.22
69420;BMP280;56612;52.030;113.524;2022-09-09T13:39:16;92758.34;;;22.07
69420;BMP280;56612;52.030;113.524;2022-09-09T13:42:28;92754.59;;;21.98
69420;BMP280;56612;52.030;113.524;2022-09-09T13:45:32;92753.06;;;21.84
69420;BMP280;56612;52.030;113.524;2022-09-09T13:48:37;92760.91;;;21.76
69420;BMP280;56612;52.030;113.524;2022-09-09T13:51:46;92750.47;;;21.64
69420;BMP280;56612;52.030;113.524;2022-09-09T13:54:51;92752.72;;;21.57
69420;BMP280;56612;52.030;113.524;2022-09-09T13:58:02;92750.66;;;21.57
69420;BMP280;56612;52.030;113.524;2022-09-09T14:01:06;92752.59;;;21.42
69420;BMP280;56612;52.030;113.524;2022-09-09T14:04:10;92755.59;;;21.34
69420;BMP280;56612;52.030;113.524;2022-09-09T14:07:15;92764.69;;;21.27
69420;BMP280;56612;52.030;113.524;2022-09-09T14:10:20;92765.84;;;21.13
69420;BMP280;56612;52.030;113.524;2022-09-09T14:13:24;92773.03;;;21.02
69420;BMP280;56612;52.030;113.524;2022-09-09T14:16:29;92779.41;;;20.94
69420;BMP280;56612;52.030;113.524;2022-09-09T14:19:33;92767.88;;;20.94
69420;BMP280;56612;52.030;113.524;2022-09-09T14:22:37;92770.13;;;20.87
69420;BMP280;56612;52.030;113.524;2022-09-09T14:25:43;92777.78;;;20.83
69420;BMP280;56612;52.030;113.524;2022-09-09T14:28:46;92776.75;;;20.71
69420;BMP280;56612;52.030;113.524;2022-09-09T14:31:57;92778.44;;;20.62
69420;BMP280;56612;52.030;113.524;2022-09-09T14:35:04;92768.59;;;20.51
69420;BMP280;56612;52.030;113.524;2022-09-09T14:38:09;92776.28;;;20.44
69420;BMP280;56612;52.030;113.524;2022-09-09T14:41:18;92774.28;;;20.43
69420;BMP280;56612;52.030;113.524;2022-09-09T14:44:23;92775.53;;;20.46
69420;BMP280;56612;52.030;113.524;2022-09-09T14:47:26;92768.13;;;20.44
69420;BMP280;56612;52.030;113.524;2022-09-09T14:50:30;92783.22;;;20.39
69420;BMP280;56612;52.030;113.524;2022-09-09T14:53:33;92773.34;;;20.29
69420;BMP280;56612;52.030;113.524;2022-09-09T14:56:37;92776.97;;;20.22
69420;BMP280;56612;52.030;113.524;2022-09-09T14:59:41;92780.81;;;20.29
69420;BMP280;56612;52.030;113.524;2022-09-09T15:02:45;92769.84;;;20.33
69420;BMP280;56612;52.030;113.524;2022-09-09T15:05:49;92769.13;;;20.34
69420;BMP280;56612;52.030;113.524;2022-09-09T15:08:53;92776.16;;;20.25
69420;BMP280;56612;52.030;113.524;2022-09-09T15:11:57;92768.97;;;20.18
69420;BMP280;56612;52.030;113.524;2022-09-09T15:15:01;92777.41;;;20.08
69420;BMP280;56612;52.030;113.524;2022-09-09T15:18:05;92775.34;;;20.08
69420;BMP280;56612;52.030;113.524;2022-09-09T15:21:16;92767.28;;;20.06
69420;BMP280;56612;52.030;113.524;2022-09-09T15:24:22;92778.31;;;20.00
69420;BMP280;56612;52.030;113.524;2022-09-09T15:27:26;92772.97;;;19.98
69420;BMP280;56612;52.030;113.524;2022-09-09T15:30:30;92777.22;;;19.91
69420;BMP280;56612;52.030;113.524;2022-09-09T15:33:34;92768.50;;;19.88
69420;BMP280;56612;52.030;113.524;2022-09-09T15:36:44;92776.78;;;19.82
69420;BMP280;56612;52.030;113.524;2022-09-09T15:39:49;92771.06;;;19.70
69420;BMP280;56612;52.030;113.524;2022-09-09T15:42:53;92785.97;;;19.46
69420;BMP280;56612;52.030;113.524;2022-09-09T15:46:09;92779.31;;;19.41
69420;BMP280;56612;52.030;113.524;2022-09-09T15:49:23;92786.97;;;19.34
69420;BMP280;56612;52.030;113.524;2022-09-09T15:52:30;92793.31;;;19.25
69420;BMP280;56612;52.030;113.524;2022-09-09T15:55:33;92799.59;;;19.17
69420;BMP280;56612;52.030;113.524;2022-09-09T15:58:37;92796.97;;;19.13
69420;BMP280;56612;52.030;113.524;2022-09-09T16:01:41;92803.44;;;18.99
69420;BMP280;56612;52.030;113.524;2022-09-09T16:04:46;92796.13;;;18.94
69420;BMP280;56612;52.030;113.524;2022-09-09T16:07:51;92777.88;;;18.92
69420;BMP280;56612;52.030;113.524;2022-09-09T16:10:55;92779.38;;;18.87
69420;BMP280;56612;52.030;113.524;2022-09-09T16:13:59;92775.88;;;18.91
69420;BMP280;56612;52.030;113.524;2022-09-09T16:17:05;92787.44;;;18.89
69420;BMP280;56612;52.030;113.524;2022-09-09T16:20:09;92776.13;;;18.80
69420;BMP280;56612;52.030;113.524;2022-09-09T16:23:15;92777.78;;;18.69
69420;BMP280;56612;52.030;113.524;2022-09-09T16:26:19;92781.31;;;18.64
69420;BMP280;56612;52.030;113.524;2022-09-09T16:29:23;92779.44;;;18.56
69420;BMP280;56612;52.030;113.524;2022-09-09T16:32:29;92782.03;;;18.62
69420;BMP280;56612;52.030;113.524;2022-09-09T16:35:36;92771.31;;;18.56
69420;BMP280;56612;52.030;113.524;2022-09-09T16:38:41;92777.69;;;18.44
69420;BMP280;56612;52.030;113.524;2022-09-09T16:41:47;92773.72;;;18.41
69420;BMP280;56612;52.030;113.524;2022-09-09T16:44:51;92778.53;;;18.37
69420;BMP280;56612;52.030;113.524;2022-09-09T16:47:55;92792.31;;;18.27
69420;BMP280;56612;52.030;113.524;2022-09-09T16:51:07;92786.25;;;18.24
69420;BMP280;56612;52.030;113.524;2022-09-09T16:54:13;92780.28;;;18.20
69420;BMP280;56612;52.030;113.524;2022-09-09T16:57:18;92777.00;;;18.15
69420;BMP280;56612;52.030;113.524;2022-09-09T17:00:22;92781.22;;;18.08
69420;BMP280;56612;52.030;113.524;2022-09-09T17:03:26;92773.16;;;18.06
69420;BMP280;56612;52.030;113.524;2022-09-09T17:06:32;92763.22;;;17.96
69420;BMP280;56612;52.030;113.524;2022-09-09T17:09:37;92779.53;;;17.92
69420;BMP280;56612;52.030;113.524;2022-09-09T17:12:41;92781.09;;;17.81
69420;BMP280;56612;52.030;113.524;2022-09-09T17:15:45;92775.66;;;17.83
69420;BMP280;56612;52.030;113.524;2022-09-09T17:18:51;92775.88;;;17.73
69420;BMP280;56612;52.030;113.524;2022-09-09T17:21:54;92774.66;;;17.66
69420;BMP280;56612;52.030;113.524;2022-09-09T17:25:19;92769.91;;;17.66
69420;BMP280;56612;52.030;113.524;2022-09-09T17:28:28;92773.28;;;17.67
69420;BMP280;56612;52.030;113.524;2022-09-09T17:31:34;92778.78;;;17.63
69420;BMP280;56612;52.030;113.524;2022-09-09T17:34:38;92779.44;;;17.63
69420;BMP280;56612;52.030;113.524;2022-09-09T17:37:42;92780.25;;;17.58
69420;BMP280;56612;52.030;113.524;2022-09-09T17:40:46;92781.00;;;17.52
69420;BMP280;56612;52.030;113.524;2022-09-09T17:43:51;92787.09;;;17.53
69420;BMP280;56612;52.030;113.524;2022-09-09T17:46:54;92778.41;;;17.46
69420;BMP280;56612;52.030;113.524;2022-09-09T17:49:59;92787.19;;;17.47
69420;BMP280;56612;52.030;113.524;2022-09-09T17:53:03;92791.31;;;17.44
69420;BMP280;56612;52.030;113.524;2022-09-09T17:56:09;92788.69;;;17.40
69420;BMP280;56612;52.030;113.524;2022-09-09T17:59:14;92782.72;;;17.33
69420;BMP280;56612;52.030;113.524;2022-09-09T18:02:19;92779.16;;;17.43
69420;BMP280;56612;52.030;113.524;2022-09-09T18:05:23;92775.88;;;17.40
69420;BMP280;56612;52.030;113.524;2022-09-09T18:08:27;92775.91;;;17.38
69420;BMP280;56612;52.030;113.524;2022-09-09T18:11:38;92777.16;;;17.41
69420;BMP280;56612;52.030;113.524;2022-09-09T18:14:45;92781.78;;;17.47
69420;BMP280;56612;52.030;113.524;2022-09-09T18:17:50;92788.56;;;17.46
69420;BMP280;56612;52.030;113.524;2022-09-09T18:21:05;92789.41;;;17.38
69420;BMP280;56612;52.030;113.524;2022-09-09T18:24:10;92780.81;;;17.27
69420;BMP280;56612;52.030;113.524;2022-09-09T18:27:15;92791.69;;;17.23
69420;BMP280;56612;52.030;113.524;2022-09-09T18:30:19;92796.50;;;17.19
69420;BMP280;56612;52.030;113.524;2022-09-09T18:33:23;92797.16;;;17.19
69420;BMP280;56612;52.030;113.524;2022-09-09T18:36:32;92799.25;;;17.17
69420;BMP280;56612;52.030;113.524;2022-09-09T18:39:36;92794.69;;;17.07
69420;BMP280;56612;52.030;113.524;2022-09-09T18:42:40;92794.78;;;17.01
69420;BMP280;56612;52.030;113.524;2022-09-09T18:45:45;92793.00;;;16.87
69420;BMP280;56612;52.030;113.524;2022-09-09T18:48:49;92792.34;;;16.85
69420;BMP280;56612;52.030;113.524;2022-09-09T18:51:54;92778.19;;;16.84
69420;BMP280;56612;52.030;113.524;2022-09-09T18:54:59;92777.50;;;16.86
69420;BMP280;56612;52.030;113.524;2022-09-09T18:58:03;92793.03;;;16.83
69420;BMP280;56612;52.030;113.524;2022-09-09T19:01:12;92793.69;;;16.86
69420;BMP280;56612;52.030;113.524;2022-09-09T19:04:17;92797.19;;;16.78
69420;BMP280;56612;52.030;113.524;2022-09-09T19:07:22;92796.63;;;16.70
69420;BMP280;56612;52.030;113.524;2022-09-09T19:10:26;92801.50;;;16.61
69420;BMP280;56612;52.030;113.524;2022-09-09T19:13:30;92804.25;;;16.59
69420;BMP280;56612;52.030;113.524;2022-09-09T19:16:35;92818.50;;;16.51
69420;BMP280;56612;52.030;113.524;2022-09-09T19:19:39;92816.06;;;16.35
69420;BMP280;56612;52.030;113.524;2022-09-09T19:22:45;92819.03;;;16.15
69420;BMP280;56612;52.030;113.524;2022-09-09T19:25:48;92823.22;;;16.04